createdAt,value
2023-06-17T00:01:40.072Z,3.234
2023-06-17T00:17:22.809Z,3.232
2023-06-17T00:33:05.662Z,3.232
2023-06-17T00:48:48.276Z,3.232
2023-06-17T01:04:31.163Z,3.232
2023-06-17T01:20:13.452Z,3.232
2023-06-17T01:35:55.846Z,3.232
2023-06-17T01:51:38.374Z,3.232
2023-06-17T02:07:20.508Z,3.232
2023-06-17T02:23:03.071Z,3.232
2023-06-17T02:38:45.407Z,3.232
2023-06-17T02:54:28.258Z,3.231
2023-06-17T03:10:10.479Z,3.231
2023-06-17T03:25:53.230Z,3.231
2023-06-17T03:41:36.235Z,3.231
2023-06-17T03:57:18.499Z,3.231
2023-06-17T04:13:00.891Z,3.231
2023-06-17T04:28:43.898Z,3.232
2023-06-17T04:44:25.994Z,3.234
2023-06-17T05:00:08.168Z,3.236
2023-06-17T05:15:51.062Z,3.242
2023-06-17T05:31:33.912Z,3.249
2023-06-17T05:47:16.506Z,3.263
2023-06-17T06:02:58.992Z,3.286
2023-06-17T06:18:41.668Z,3.326
2023-06-17T06:34:24.489Z,3.297
2023-06-17T06:50:07.217Z,3.286
2023-06-17T07:05:49.890Z,3.278
2023-06-17T07:21:32.549Z,3.271
2023-06-17T07:37:15.372Z,3.264
2023-06-17T07:52:57.728Z,3.26
2023-06-17T08:08:39.993Z,3.256
2023-06-17T08:55:47.685Z,3.292
2023-06-17T09:11:30.057Z,3.282
2023-06-17T09:27:12.109Z,3.276
2023-06-17T09:42:54.645Z,3.271
2023-06-17T09:58:36.855Z,3.264
2023-06-17T10:14:19.037Z,3.26
2023-06-17T10:30:01.591Z,3.438
2023-06-17T10:45:44.022Z,3.412
2023-06-17T11:01:26.544Z,3.394
2023-06-17T11:17:08.630Z,3.379
2023-06-17T11:32:50.886Z,3.364
2023-06-17T11:48:33.407Z,3.351
2023-06-17T12:04:15.689Z,3.341
2023-06-17T12:19:58.599Z,3.329
2023-06-17T12:35:40.943Z,3.308
2023-06-17T12:51:23.005Z,3.3
2023-06-17T13:07:05.517Z,3.29
2023-06-17T13:22:47.624Z,3.282
2023-06-17T13:38:30.031Z,3.276
2023-06-17T13:54:12.701Z,3.271
2023-06-17T14:09:54.904Z,3.265
2023-06-17T14:25:37.363Z,3.261
2023-06-17T14:41:19.918Z,3.256
2023-06-17T14:57:02.823Z,3.465
2023-06-17T15:12:44.980Z,3.426
2023-06-17T15:28:27.288Z,3.404
2023-06-17T15:44:10.047Z,3.389
2023-06-17T15:59:52.216Z,3.373
2023-06-17T16:15:34.690Z,3.359
2023-06-17T16:31:17.194Z,3.347
2023-06-17T16:46:59.408Z,3.336
2023-06-17T17:02:41.502Z,3.312
2023-06-17T17:18:23.754Z,3.304
2023-06-17T17:34:06.003Z,3.296
2023-06-17T17:49:48.722Z,3.288
2023-06-17T18:05:30.844Z,3.282
2023-06-17T18:21:13.038Z,3.275
2023-06-17T18:36:55.035Z,3.27
2023-06-17T18:52:37.104Z,3.264
2023-06-17T18:53:24.346Z,3.257
2023-06-17T19:09:06.627Z,3.254
2023-06-17T19:24:49.571Z,3.25
2023-06-17T19:40:32.097Z,3.246
2023-06-17T19:56:14.260Z,3.245
2023-06-17T20:11:56.695Z,3.242
2023-06-17T20:27:39.475Z,3.239
2023-06-17T20:43:22.287Z,3.238
2023-06-17T20:59:04.967Z,3.235
2023-06-17T21:14:47.372Z,3.235
2023-06-17T21:30:29.826Z,3.234
2023-06-17T21:46:12.323Z,3.232
2023-06-17T22:01:55.124Z,3.231
2023-06-17T22:17:37.543Z,3.229
2023-06-17T22:33:20.321Z,3.229
2023-06-17T22:49:02.534Z,3.228
2023-06-17T23:04:44.812Z,3.228
2023-06-17T23:20:27.203Z,3.227
2023-06-17T23:36:09.794Z,3.227
2023-06-17T23:51:51.949Z,3.225
